Kezdőlap
METAR-TAF:

METAR-TAF

Repülőterek :

Grise Fiord, Nunavut, Kanada

földrajzi szélesség: 76-25N, földrajzi hosszúság: 082-54W, magasság: 45 m

Jelenlegi meteorológiai megfigyelések

A jelentés 7 órával és 39 perccel ezelõtt készült, 01:00 UTC
Szélcsend
Hőmérséklet -32°C
Páratartalom 67%
Légköri nyomás 1017 hPa
Látótávolság: 24.1 km
Derült ég

METAR: CWGZ 270100Z 00000KT 15SM SKC M32/M36 A3004 RMK S0 AFT 17UTC/LAST STFD OBS/NEXT 271300 UTC SLP183

Idő: 03:39 (08:39 UTC)


TAF: hiányzik

Meteorológiai megfigyelések és előrejelzések több, mint 4000 repülőtéren (METAR és TAF jelentéseket).

A térképen piros és sárga pontok jelzik az elérhető meteorológiai állomásokat.

Mozgassa az egeret a pont fölött, hogy megjelenjen az állomás neve.

Azután kattintson az időjárási megfigyelések és előrejelzések megtekintéséhez.

A térkép megváltoztatása: kattintson a fekete keresztel jelölt zöld gombra ráközelítéshez, a vonallal jelölt zöld gombra távolításhoz, vagy a zöld nyilakra a szomszédos térképek eléréséhez.


METAR-TAF: